createdAt,value
2017-08-05T00:00:46.692Z,17.78
2017-08-05T00:01:46.698Z,17.71
2017-08-05T00:02:46.657Z,17.73
2017-08-05T00:03:46.965Z,17.73
2017-08-05T00:04:46.641Z,17.69
2017-08-05T00:05:46.630Z,17.74
2017-08-05T00:06:46.617Z,17.69
2017-08-05T00:07:46.919Z,17.59
2017-08-05T00:08:46.593Z,17.64
2017-08-05T00:09:46.894Z,17.63
2017-08-05T00:10:46.888Z,17.73
2017-08-05T00:11:46.564Z,17.67
2017-08-05T00:12:46.564Z,17.66
2017-08-05T00:13:46.543Z,17.71
2017-08-05T00:14:46.842Z,17.7
2017-08-05T00:15:46.213Z,17.64
2017-08-05T00:16:46.511Z,17.66
2017-08-05T00:17:46.193Z,17.67
2017-08-05T00:18:46.485Z,17.59
2017-08-05T00:19:46.481Z,17.51
2017-08-05T00:20:46.150Z,17.53
2017-08-05T00:21:46.766Z,17.5
2017-08-05T00:22:46.752Z,17.41
2017-08-05T00:23:46.445Z,17.55
2017-08-05T00:24:46.741Z,17.54
2017-08-05T00:25:46.421Z,17.44
2017-08-05T00:26:46.717Z,17.41
2017-08-05T00:27:46.754Z,17.36
2017-08-05T00:28:46.380Z,17.36
2017-08-05T00:29:46.691Z,17.28
2017-08-05T00:30:46.355Z,17.33
2017-08-05T00:31:46.347Z,17.33
2017-08-05T00:32:46.699Z,17.33
2017-08-05T00:33:46.635Z,17.29
2017-08-05T00:34:46.627Z,17.3
2017-08-05T00:35:46.616Z,17.25
2017-08-05T00:36:46.297Z,17.18
2017-08-05T00:37:46.602Z,17.23
2017-08-05T00:38:46.274Z,17.25
2017-08-05T00:39:46.572Z,17.18
2017-08-05T00:40:45.932Z,17.15
2017-08-05T00:41:46.546Z,17.13
2017-08-05T00:42:46.537Z,17.08
2017-08-05T00:43:46.231Z,17.14
2017-08-05T00:44:46.206Z,17.03
2017-08-05T00:45:46.507Z,17
2017-08-05T00:46:46.180Z,17.08
2017-08-05T00:47:46.488Z,16.96
2017-08-05T00:48:46.469Z,16.98
2017-08-05T00:49:45.837Z,16.93
2017-08-05T00:50:46.142Z,16.89
2017-08-05T00:51:46.436Z,16.88
2017-08-05T00:52:46.118Z,16.75
2017-08-05T00:53:46.422Z,16.8
2017-08-05T00:54:45.779Z,16.7
2017-08-05T00:55:46.449Z,16.81
2017-08-05T00:56:46.385Z,16.74
2017-08-05T00:57:46.372Z,16.73
2017-08-05T00:58:46.360Z,16.6
2017-08-05T00:59:46.351Z,16.58
2017-08-05T01:00:46.030Z,16.58
2017-08-05T01:01:46.017Z,16.48
2017-08-05T01:02:45.692Z,16.6
2017-08-05T01:03:46.312Z,16.53
2017-08-05T01:04:46.296Z,16.53
2017-08-05T01:05:45.972Z,16.44
2017-08-05T01:06:45.956Z,16.37
2017-08-05T01:07:45.953Z,16.44
2017-08-05T01:08:46.249Z,16.34
2017-08-05T01:09:45.920Z,16.3
2017-08-05T01:10:45.911Z,16.31
2017-08-05T01:11:45.590Z,16.3
2017-08-05T01:12:46.196Z,16.26
2017-08-05T01:13:46.206Z,16.3
2017-08-05T01:14:45.870Z,16.23
2017-08-05T01:15:45.850Z,16.2
2017-08-05T01:16:45.530Z,16.2
2017-08-05T01:17:46.146Z,16.16
2017-08-05T01:18:46.134Z,16.09
2017-08-05T01:19:46.138Z,16.15
2017-08-05T01:20:45.481Z,16.11
2017-08-05T01:21:45.784Z,16.04
2017-08-05T01:22:46.099Z,16.03
2017-08-05T01:23:46.074Z,16.03
2017-08-05T01:24:46.056Z,15.97
2017-08-05T01:25:45.742Z,15.88
2017-08-05T01:26:46.055Z,15.94
2017-08-05T01:27:46.030Z,15.89
2017-08-05T01:28:45.903Z,15.89
2017-08-05T01:29:46.004Z,15.92
2017-08-05T01:30:45.682Z,15.84
2017-08-05T01:31:45.696Z,15.74
2017-08-05T01:32:45.661Z,15.75
2017-08-05T01:33:45.667Z,15.68
2017-08-05T01:34:45.948Z,15.7
2017-08-05T01:35:45.937Z,15.81
2017-08-05T01:36:45.921Z,15.72
2017-08-05T01:37:45.596Z,15.72
2017-08-05T01:38:45.897Z,15.63
2017-08-05T01:39:45.573Z,15.64
2017-08-05T01:40:45.564Z,15.61
2017-08-05T01:41:45.864Z,15.66
2017-08-05T01:42:45.531Z,15.67
2017-08-05T01:43:45.834Z,15.63
2017-08-05T01:44:45.202Z,15.56
2017-08-05T01:45:45.184Z,15.64
2017-08-05T01:46:45.803Z,15.56
2017-08-05T01:47:45.793Z,15.59
2017-08-05T01:48:45.517Z,15.56
2017-08-05T01:49:45.450Z,15.59
2017-08-05T01:50:45.751Z,15.59
2017-08-05T01:51:45.745Z,15.57
2017-08-05T01:52:45.417Z,15.57
2017-08-05T01:53:45.720Z,15.57
2017-08-05T01:54:45.701Z,15.57
2017-08-05T01:55:45.379Z,15.63
2017-08-05T01:56:45.678Z,15.59
2017-08-05T01:57:45.363Z,15.6
2017-08-05T01:58:45.658Z,15.7
2017-08-05T01:59:45.329Z,15.66
2017-08-05T02:00:45.318Z,15.78
2017-08-05T02:01:45.618Z,15.75
2017-08-05T02:02:45.612Z,15.68
2017-08-05T02:03:45.282Z,15.7
2017-08-05T02:04:45.584Z,15.72
2017-08-05T02:05:44.955Z,15.7
2017-08-05T02:06:45.557Z,15.78
2017-08-05T02:07:44.920Z,15.82
2017-08-05T02:08:45.220Z,15.92
2017-08-05T02:09:45.211Z,15.82
2017-08-05T02:10:45.521Z,15.81
2017-08-05T02:11:45.497Z,15.86
2017-08-05T02:12:45.484Z,15.92
2017-08-05T02:13:45.162Z,15.88
2017-08-05T02:14:45.464Z,15.89
2017-08-05T02:15:44.826Z,15.94
2017-08-05T02:16:44.843Z,15.99
2017-08-05T02:17:45.115Z,16.09
2017-08-05T02:18:45.410Z,16.01
2017-08-05T02:19:45.089Z,16.12
2017-08-05T02:20:45.078Z,16.11
2017-08-05T02:21:45.065Z,16.09
2017-08-05T02:22:45.370Z,16.12
2017-08-05T02:23:45.352Z,16.14
2017-08-05T02:24:45.034Z,16.11
2017-08-05T02:25:45.019Z,16.2
2017-08-05T02:26:44.695Z,16.12
2017-08-05T02:27:44.994Z,16.16
2017-08-05T02:28:45.297Z,16.14
2017-08-05T02:29:44.997Z,16.18
2017-08-05T02:30:44.964Z,16.22
2017-08-05T02:31:44.948Z,16.22
2017-08-05T02:32:45.260Z,16.26
2017-08-05T02:33:44.623Z,16.31
2017-08-05T02:34:44.917Z,16.27
2017-08-05T02:35:45.208Z,16.3
2017-08-05T02:36:44.895Z,16.25
2017-08-05T02:37:44.570Z,16.33
2017-08-05T02:38:44.873Z,16.26
2017-08-05T02:39:44.852Z,16.25
2017-08-05T02:40:44.530Z,16.27
2017-08-05T02:41:44.836Z,16.34
2017-08-05T02:42:45.153Z,16.26
2017-08-05T02:43:45.121Z,16.41
2017-08-05T02:44:44.795Z,16.37
2017-08-05T02:45:44.787Z,16.44
2017-08-05T02:46:44.775Z,16.5
2017-08-05T02:47:45.065Z,16.49
2017-08-05T02:48:44.434Z,16.44
2017-08-05T02:49:44.752Z,16.55
2017-08-05T02:50:45.032Z,16.59
2017-08-05T02:51:45.028Z,16.52
2017-08-05T02:52:45.021Z,16.5
2017-08-05T02:53:44.684Z,16.58
2017-08-05T02:54:44.675Z,16.59
2017-08-05T02:55:44.975Z,16.6
2017-08-05T02:56:44.656Z,16.59
2017-08-05T02:57:44.641Z,16.58
2017-08-05T02:58:44.632Z,16.67
2017-08-05T02:59:44.944Z,16.71
2017-08-05T03:00:44.292Z,16.73
2017-08-05T03:01:44.909Z,16.71
2017-08-05T03:02:44.918Z,16.81
2017-08-05T03:03:44.601Z,16.83
2017-08-05T03:04:44.570Z,16.83
2017-08-05T03:05:44.861Z,16.86
2017-08-05T03:06:44.540Z,16.83
2017-08-05T03:07:44.834Z,16.81
2017-08-05T03:08:44.200Z,16.77
2017-08-05T03:09:44.503Z,16.8
2017-08-05T03:10:44.832Z,16.83
2017-08-05T03:11:44.169Z,16.88
2017-08-05T03:12:44.782Z,16.9
2017-08-05T03:13:44.457Z,16.86
2017-08-05T03:14:44.456Z,16.86
2017-08-05T03:15:44.434Z,16.85
2017-08-05T03:16:44.736Z,16.93
2017-08-05T03:17:44.737Z,16.89
2017-08-05T03:18:44.405Z,16.92
2017-08-05T03:19:44.709Z,16.9
2017-08-05T03:20:44.375Z,16.93
2017-08-05T03:21:44.675Z,16.93
2017-08-05T03:22:44.354Z,16.96
2017-08-05T03:23:44.037Z,17.04
2017-08-05T03:24:44.327Z,16.99
2017-08-05T03:25:44.320Z,17.04
2017-08-05T03:26:44.000Z,17.06
2017-08-05T03:27:44.322Z,16.99
2017-08-05T03:28:44.491Z,17.08
2017-08-05T03:29:43.957Z,17
2017-08-05T03:30:43.958Z,17
2017-08-05T03:31:44.563Z,17.04
2017-08-05T03:32:44.237Z,17.04
2017-08-05T03:33:44.229Z,17.04
2017-08-05T03:34:44.227Z,17.04
2017-08-05T03:35:44.208Z,17.04
2017-08-05T03:36:44.203Z,17.1
2017-08-05T03:37:43.871Z,17.08
2017-08-05T03:38:44.181Z,17.08
2017-08-05T03:39:44.479Z,17.11
2017-08-05T03:40:44.465Z,17.15
2017-08-05T03:41:44.141Z,17.17
2017-08-05T03:42:44.438Z,17.26
2017-08-05T03:43:44.119Z,17.26
2017-08-05T03:44:44.106Z,17.3
2017-08-05T03:45:44.090Z,17.3
2017-08-05T03:46:44.084Z,17.36
2017-08-05T03:47:44.071Z,17.38
2017-08-05T03:48:44.371Z,17.38
2017-08-05T03:49:44.045Z,17.47
2017-08-05T03:50:44.045Z,17.44
2017-08-05T03:51:44.340Z,17.55
2017-08-05T03:52:44.012Z,17.4
2017-08-05T03:53:44.000Z,17.47
2017-08-05T03:54:44.309Z,17.47
2017-08-05T03:55:44.290Z,17.48
2017-08-05T03:56:43.967Z,17.48
2017-08-05T03:57:44.268Z,17.48
2017-08-05T03:58:44.274Z,17.35
2017-08-05T03:59:43.936Z,17.25
2017-08-05T04:00:44.239Z,17.13
2017-08-05T04:01:43.915Z,17.11
2017-08-05T04:02:43.588Z,17.04
2017-08-05T04:03:44.255Z,16.93
2017-08-05T04:04:44.182Z,16.9
2017-08-05T04:05:44.228Z,16.77
2017-08-05T04:06:43.849Z,16.67
2017-08-05T04:07:44.148Z,16.77
2017-08-05T04:08:44.167Z,16.73
2017-08-05T04:09:44.128Z,16.65
2017-08-05T04:10:43.798Z,16.62
2017-08-05T04:11:43.488Z,16.58
2017-08-05T04:12:44.088Z,16.6
2017-08-05T04:13:44.078Z,16.56
2017-08-05T04:14:43.784Z,16.45
2017-08-05T04:15:43.437Z,16.42
2017-08-05T04:16:43.731Z,16.41
2017-08-05T04:17:44.032Z,16.38
2017-08-05T04:18:44.017Z,16.37
2017-08-05T04:19:44.000Z,16.31
2017-08-05T04:20:44.046Z,16.38
2017-08-05T04:21:43.667Z,16.27
2017-08-05T04:22:43.981Z,16.3
2017-08-05T04:23:43.332Z,16.25
2017-08-05T04:24:43.963Z,16.26
2017-08-05T04:25:43.668Z,16.25
2017-08-05T04:26:43.605Z,16.23
2017-08-05T04:27:43.592Z,16.25
2017-08-05T04:28:43.586Z,16.16
2017-08-05T04:29:43.885Z,16.18
2017-08-05T04:30:43.598Z,16.15
2017-08-05T04:31:43.855Z,16.2
2017-08-05T04:32:43.220Z,16.2
2017-08-05T04:33:43.511Z,16.15
2017-08-05T04:34:43.508Z,16.16
2017-08-05T04:35:43.808Z,16.11
2017-08-05T04:36:43.807Z,16.26
2017-08-05T04:37:43.151Z,16.14
2017-08-05T04:38:43.775Z,16.09
2017-08-05T04:39:43.753Z,16.12
2017-08-05T04:40:43.737Z,16.11
2017-08-05T04:41:43.730Z,16.06
2017-08-05T04:42:43.919Z,16.14
2017-08-05T04:43:43.390Z,16.12
2017-08-05T04:44:43.694Z,16.01
2017-08-05T04:45:43.672Z,16.01
2017-08-05T04:46:43.664Z,16.04
2017-08-05T04:47:43.348Z,16.04
2017-08-05T04:48:43.640Z,16.07
2017-08-05T04:49:43.644Z,16.03
2017-08-05T04:50:43.623Z,16
2017-08-05T04:51:43.289Z,16.04
2017-08-05T04:52:43.599Z,16.01
2017-08-05T04:53:43.271Z,16.03
2017-08-05T04:54:43.567Z,16.12
2017-08-05T04:55:43.236Z,16.09
2017-08-05T04:56:42.909Z,16.07
2017-08-05T04:57:43.222Z,16.11
2017-08-05T04:58:43.202Z,16.15
2017-08-05T04:59:43.185Z,16.14
2017-08-05T05:00:43.533Z,16.11
2017-08-05T05:01:43.478Z,16.15
2017-08-05T05:02:43.160Z,16.18
2017-08-05T05:03:43.132Z,16.16
2017-08-05T05:04:43.441Z,16.2
2017-08-05T05:05:43.428Z,16.18
2017-08-05T05:06:43.413Z,16.18
2017-08-05T05:07:43.094Z,16.18
2017-08-05T05:08:43.072Z,16.23
2017-08-05T05:09:43.609Z,16.15
2017-08-05T05:10:43.049Z,16.12
2017-08-05T05:11:43.035Z,16.16
2017-08-05T05:12:43.339Z,16.15
2017-08-05T05:13:43.017Z,16.14
2017-08-05T05:14:42.996Z,16.16
2017-08-05T05:15:43.303Z,16.18
2017-08-05T05:16:42.976Z,16.16
2017-08-05T05:17:43.272Z,16.18
2017-08-05T05:18:43.383Z,16.31
2017-08-05T05:19:42.933Z,16.3
2017-08-05T05:20:43.236Z,16.3
2017-08-05T05:21:43.224Z,16.23
2017-08-05T05:22:42.597Z,16.31
2017-08-05T05:23:43.206Z,16.22
2017-08-05T05:24:43.185Z,16.26
2017-08-05T05:25:42.866Z,16.27
2017-08-05T05:26:42.864Z,16.25
2017-08-05T05:27:42.540Z,16.25
2017-08-05T05:28:43.045Z,16.2
2017-08-05T05:29:43.132Z,16.26
2017-08-05T05:30:43.117Z,16.3
2017-08-05T05:31:42.788Z,16.25
2017-08-05T05:32:43.108Z,16.23
2017-08-05T05:33:43.077Z,16.2
2017-08-05T05:34:42.445Z,16.22
2017-08-05T05:35:42.754Z,16.26
2017-08-05T05:36:42.728Z,16.27
2017-08-05T05:37:43.046Z,16.26
2017-08-05T05:38:42.704Z,16.23
2017-08-05T05:39:42.691Z,16.26
2017-08-05T05:40:42.991Z,16.23
2017-08-05T05:41:42.671Z,16.23
2017-08-05T05:42:42.341Z,16.34
2017-08-05T05:43:42.644Z,16.33
2017-08-05T05:44:42.683Z,16.25
2017-08-05T05:45:42.929Z,16.26
2017-08-05T05:46:42.970Z,16.23
2017-08-05T05:47:42.904Z,16.25
2017-08-05T05:48:42.592Z,16.26
2017-08-05T05:49:42.882Z,16.26
2017-08-05T05:50:42.243Z,16.22
2017-08-05T05:51:42.232Z,16.26
2017-08-05T05:52:42.232Z,16.3
2017-08-05T05:53:42.519Z,16.34
2017-08-05T05:54:42.518Z,16.33
2017-08-05T05:55:42.497Z,16.31
2017-08-05T05:56:42.484Z,16.26
2017-08-05T05:57:42.787Z,16.31
2017-08-05T05:58:42.463Z,16.4
2017-08-05T05:59:42.133Z,16.35
2017-08-05T06:00:42.438Z,16.35
2017-08-05T06:01:42.740Z,16.4
2017-08-05T06:02:42.724Z,16.35
2017-08-05T06:03:42.714Z,16.35
2017-08-05T06:04:42.388Z,16.38
2017-08-05T06:05:42.694Z,16.33
2017-08-05T06:06:42.681Z,16.37
2017-08-05T06:07:42.668Z,16.4
2017-08-05T06:08:42.032Z,16.49
2017-08-05T06:09:42.328Z,16.45
2017-08-05T06:10:42.007Z,16.45
2017-08-05T06:11:42.358Z,16.48
2017-08-05T06:12:41.977Z,16.58
2017-08-05T06:13:42.299Z,16.58
2017-08-05T06:14:42.276Z,16.62
2017-08-05T06:15:42.570Z,16.62
2017-08-05T06:16:42.245Z,16.65
2017-08-05T06:17:41.922Z,16.7
2017-08-05T06:18:42.226Z,16.71
2017-08-05T06:19:42.525Z,16.73
2017-08-05T06:20:42.197Z,16.83
2017-08-05T06:21:42.266Z,16.85
2017-08-05T06:22:42.173Z,16.74
2017-08-05T06:23:42.194Z,16.88
2017-08-05T06:24:42.154Z,16.77
2017-08-05T06:25:42.460Z,16.74
2017-08-05T06:26:42.128Z,16.83
2017-08-05T06:27:42.429Z,16.68
2017-08-05T06:28:42.101Z,16.78
2017-08-05T06:29:42.090Z,16.83
2017-08-05T06:30:42.078Z,16.86
2017-08-05T06:31:42.382Z,16.88
2017-08-05T06:32:42.059Z,16.86
2017-08-05T06:33:42.044Z,16.89
2017-08-05T06:34:42.041Z,16.92
2017-08-05T06:35:42.336Z,16.92
2017-08-05T06:36:41.707Z,16.93
2017-08-05T06:37:42.329Z,16.96
2017-08-05T06:38:42.001Z,16.95
2017-08-05T06:39:42.293Z,16.95
2017-08-05T06:40:42.283Z,16.96
2017-08-05T06:41:42.288Z,16.96
2017-08-05T06:42:42.259Z,16.92
2017-08-05T06:43:42.256Z,16.95
2017-08-05T06:44:42.240Z,16.9
2017-08-05T06:45:42.228Z,16.99
2017-08-05T06:46:41.592Z,16.92
2017-08-05T06:47:41.898Z,16.95
2017-08-05T06:48:42.198Z,16.96
2017-08-05T06:49:42.189Z,17
2017-08-05T06:50:42.170Z,16.96
2017-08-05T06:51:41.844Z,16.9
2017-08-05T06:52:42.149Z,16.88
2017-08-05T06:53:41.825Z,16.93
2017-08-05T06:54:42.125Z,16.85
2017-08-05T06:55:42.115Z,16.9
2017-08-05T06:56:41.790Z,16.89
2017-08-05T06:57:42.087Z,16.86
2017-08-05T06:58:41.771Z,16.9
2017-08-05T06:59:41.753Z,16.96
2017-08-05T07:00:42.054Z,16.93
2017-08-05T07:01:41.739Z,16.95
2017-08-05T07:02:42.029Z,16.99
2017-08-05T07:03:42.022Z,16.9
2017-08-05T07:04:41.705Z,16.92
2017-08-05T07:05:41.687Z,16.86
2017-08-05T07:06:41.992Z,16.85
2017-08-05T07:07:41.349Z,16.86
2017-08-05T07:08:41.971Z,16.89
2017-08-05T07:09:41.962Z,16.83
2017-08-05T07:10:41.629Z,16.86
2017-08-05T07:11:41.935Z,16.81
2017-08-05T07:12:41.612Z,16.8
2017-08-05T07:13:41.287Z,16.8
2017-08-05T07:14:41.582Z,16.78
2017-08-05T07:15:41.891Z,16.8
2017-08-05T07:16:41.563Z,16.93
2017-08-05T07:17:41.546Z,16.85
2017-08-05T07:18:41.536Z,16.89
2017-08-05T07:19:41.840Z,16.9
2017-08-05T07:20:41.835Z,16.93
2017-08-05T07:21:41.816Z,16.81
2017-08-05T07:22:41.180Z,16.92
2017-08-05T07:23:41.794Z,16.83
2017-08-05T07:24:41.792Z,16.78
2017-08-05T07:25:41.458Z,16.88
2017-08-05T07:26:41.452Z,16.89
2017-08-05T07:27:41.446Z,16.83
2017-08-05T07:28:41.626Z,16.89
2017-08-05T07:29:41.729Z,16.89
2017-08-05T07:30:41.717Z,16.85
2017-08-05T07:31:41.396Z,16.86
2017-08-05T07:32:41.067Z,16.88
2017-08-05T07:33:41.687Z,16.9
2017-08-05T07:34:41.361Z,16.85
2017-08-05T07:35:41.034Z,16.89
2017-08-05T07:36:41.336Z,16.89
2017-08-05T07:37:41.638Z,16.77
2017-08-05T07:38:41.337Z,16.73
2017-08-05T07:39:41.298Z,16.8
2017-08-05T07:40:41.293Z,16.83
2017-08-05T07:41:41.276Z,16.86
2017-08-05T07:42:41.579Z,16.83
2017-08-05T07:43:41.251Z,16.92
2017-08-05T07:44:41.242Z,16.86
2017-08-05T07:45:41.235Z,16.85
2017-08-05T07:46:41.532Z,16.95
2017-08-05T07:47:41.209Z,16.95
2017-08-05T07:48:40.890Z,16.95
2017-08-05T07:49:41.513Z,16.93
2017-08-05T07:50:41.178Z,16.98
2017-08-05T07:51:40.847Z,16.92
2017-08-05T07:52:41.480Z,16.96
2017-08-05T07:53:41.455Z,16.99
2017-08-05T07:54:41.452Z,16.92
2017-08-05T07:55:41.433Z,16.96
2017-08-05T07:56:41.420Z,16.93
2017-08-05T07:57:40.785Z,16.96
2017-08-05T07:58:41.084Z,17.07
2017-08-05T07:59:41.389Z,17.04
2017-08-05T08:00:41.381Z,17.03
2017-08-05T08:01:41.057Z,17.13
2017-08-05T08:02:41.045Z,17.15
2017-08-05T08:03:41.345Z,17.15
2017-08-05T08:04:41.022Z,17.13
2017-08-05T08:05:41.012Z,17.11
2017-08-05T08:06:41.313Z,17.17
2017-08-05T08:07:41.312Z,17.18
2017-08-05T08:08:40.983Z,17.32
2017-08-05T08:09:40.967Z,17.33
2017-08-05T08:10:40.960Z,17.32
2017-08-05T08:11:40.949Z,17.35
2017-08-05T08:12:40.937Z,17.41
2017-08-05T08:13:40.917Z,17.48
2017-08-05T08:14:40.916Z,17.4
2017-08-05T08:15:40.907Z,17.46
2017-08-05T08:16:40.891Z,17.5
2017-08-05T08:17:41.199Z,17.43
2017-08-05T08:18:40.868Z,17.53
2017-08-05T08:19:41.170Z,17.55
2017-08-05T08:20:41.155Z,17.44
2017-08-05T08:21:41.150Z,17.5
2017-08-05T08:22:40.825Z,17.51
2017-08-05T08:23:41.131Z,17.67
2017-08-05T08:24:40.808Z,17.62
2017-08-05T08:25:41.112Z,17.53
2017-08-05T08:26:40.788Z,17.59
2017-08-05T08:27:41.086Z,17.71
2017-08-05T08:28:40.762Z,17.69
2017-08-05T08:29:40.748Z,17.57
2017-08-05T08:30:41.059Z,17.57
2017-08-05T08:31:40.740Z,17.59
2017-08-05T08:32:40.726Z,17.63
2017-08-05T08:33:41.025Z,17.66
2017-08-05T08:34:40.702Z,17.66
2017-08-05T08:35:40.691Z,17.64
2017-08-05T08:36:40.994Z,17.62
2017-08-05T08:37:40.980Z,17.54
2017-08-05T08:38:40.977Z,17.55
2017-08-05T08:39:40.957Z,17.46
2017-08-05T08:40:40.968Z,17.48
2017-08-05T08:41:40.939Z,17.46
2017-08-05T08:42:40.941Z,17.43
2017-08-05T08:43:40.969Z,17.51
2017-08-05T08:44:40.596Z,17.54
2017-08-05T08:45:40.899Z,17.5
2017-08-05T08:46:40.576Z,17.66
2017-08-05T08:47:40.875Z,17.55
2017-08-05T08:48:40.869Z,17.59
2017-08-05T08:49:40.858Z,17.54
2017-08-05T08:50:40.540Z,17.54
2017-08-05T08:51:40.210Z,17.54
2017-08-05T08:52:40.517Z,17.57
2017-08-05T08:53:40.867Z,17.63
2017-08-05T08:54:40.494Z,17.59
2017-08-05T08:55:40.513Z,17.53
2017-08-05T08:56:40.785Z,17.55
2017-08-05T08:57:40.461Z,17.53
2017-08-05T08:58:40.762Z,17.67
2017-08-05T08:59:40.439Z,17.62
2017-08-05T09:00:40.432Z,17.69
2017-08-05T09:01:40.732Z,17.71
2017-08-05T09:02:40.414Z,17.76
2017-08-05T09:03:40.398Z,17.67
2017-08-05T09:04:40.392Z,17.67
2017-08-05T09:05:40.386Z,17.73
2017-08-05T09:06:40.684Z,17.79
2017-08-05T09:07:40.361Z,17.87
2017-08-05T09:08:40.670Z,17.84
2017-08-05T09:09:40.649Z,17.88
2017-08-05T09:10:40.641Z,17.95
2017-08-05T09:11:40.326Z,17.84
2017-08-05T09:12:39.995Z,18
2017-08-05T09:13:40.316Z,18.02
2017-08-05T09:14:39.981Z,17.94
2017-08-05T09:15:40.293Z,18
2017-08-05T09:16:40.577Z,17.95
2017-08-05T09:17:40.258Z,18
2017-08-05T09:18:40.249Z,18.06
2017-08-05T09:19:40.243Z,18.07
2017-08-05T09:20:40.538Z,18.12
2017-08-05T09:21:40.238Z,18.12
2017-08-05T09:22:40.522Z,18.06
2017-08-05T09:23:40.203Z,18.07
2017-08-05T09:24:40.514Z,18.07
2017-08-05T09:25:40.488Z,18.1
2017-08-05T09:26:40.478Z,18.09
2017-08-05T09:27:39.850Z,18.03
2017-08-05T09:28:40.657Z,18.06
2017-08-05T09:29:40.456Z,17.92
2017-08-05T09:30:40.126Z,18.03
2017-08-05T09:31:40.436Z,18.12
2017-08-05T09:32:40.109Z,18
2017-08-05T09:33:40.410Z,18
2017-08-05T09:34:40.089Z,18.02
2017-08-05T09:35:40.395Z,18
2017-08-05T09:36:40.068Z,18.03
2017-08-05T09:37:40.369Z,17.95
2017-08-05T09:38:39.731Z,17.91
2017-08-05T09:39:40.089Z,17.84
2017-08-05T09:40:40.032Z,17.87
2017-08-05T09:41:40.326Z,17.82
2017-08-05T09:42:40.006Z,17.92
2017-08-05T09:43:39.995Z,17.85
2017-08-05T09:44:39.986Z,17.81
2017-08-05T09:45:39.986Z,17.81
2017-08-05T09:46:39.971Z,17.92
2017-08-05T09:47:40.269Z,17.99
2017-08-05T09:48:40.273Z,17.87
2017-08-05T09:49:40.253Z,17.91
2017-08-05T09:50:39.925Z,17.97
2017-08-05T09:51:40.232Z,17.87
2017-08-05T09:52:39.907Z,17.84
2017-08-05T09:53:40.214Z,17.84
2017-08-05T09:54:40.199Z,17.85
2017-08-05T09:55:40.182Z,17.89
2017-08-05T09:56:40.180Z,17.88
2017-08-05T09:57:39.868Z,17.97
2017-08-05T09:58:40.170Z,17.97
2017-08-05T09:59:40.155Z,18.03
2017-08-05T10:00:40.136Z,17.94
2017-08-05T10:01:39.815Z,17.95
2017-08-05T10:02:39.488Z,18
2017-08-05T10:03:39.478Z,17.95
2017-08-05T10:04:40.112Z,17.94
2017-08-05T10:05:39.771Z,17.92
2017-08-05T10:06:39.757Z,17.92
2017-08-05T10:07:39.756Z,17.92
2017-08-05T10:08:40.052Z,18
2017-08-05T10:09:39.777Z,17.89
2017-08-05T10:10:39.724Z,17.91
2017-08-05T10:11:39.722Z,18
2017-08-05T10:12:39.701Z,17.99
2017-08-05T10:13:39.686Z,18.1
2017-08-05T10:14:39.996Z,18
2017-08-05T10:15:39.355Z,18.1
2017-08-05T10:16:39.662Z,18.1
2017-08-05T10:17:39.959Z,18.21
2017-08-05T10:18:39.327Z,18.15
2017-08-05T10:19:39.946Z,18.1
2017-08-05T10:20:39.936Z,18.17
2017-08-05T10:21:39.608Z,18.12
2017-08-05T10:22:39.605Z,18.18
2017-08-05T10:23:39.284Z,18.18
2017-08-05T10:24:39.578Z,18.31
2017-08-05T10:25:39.882Z,18.18
2017-08-05T10:26:40.033Z,18.29
2017-08-05T10:27:39.858Z,18.25
2017-08-05T10:28:39.541Z,18.21
2017-08-05T10:29:39.529Z,18.19
2017-08-05T10:30:39.515Z,18.27
2017-08-05T10:31:39.506Z,18.21
2017-08-05T10:32:39.807Z,18.19
2017-08-05T10:33:39.490Z,18.28
2017-08-05T10:34:39.793Z,18.19
2017-08-05T10:35:39.787Z,18.22
2017-08-05T10:36:39.769Z,18.21
2017-08-05T10:37:39.759Z,18.17
2017-08-05T10:38:39.748Z,18.24
2017-08-05T10:39:39.427Z,18.36
2017-08-05T10:40:39.418Z,18.34
2017-08-05T10:41:39.403Z,18.28
2017-08-05T10:42:39.706Z,18.37
2017-08-05T10:43:39.698Z,18.39
2017-08-05T10:44:39.701Z,18.43
2017-08-05T10:45:39.677Z,18.42
2017-08-05T10:46:39.677Z,18.55
2017-08-05T10:47:39.037Z,18.5
2017-08-05T10:48:39.335Z,18.57
2017-08-05T10:49:39.697Z,18.54
2017-08-05T10:50:39.333Z,18.74
2017-08-05T10:51:39.628Z,18.72
2017-08-05T10:52:39.305Z,18.74
2017-08-05T10:53:39.292Z,18.9
2017-08-05T10:54:39.598Z,18.99
2017-08-05T10:55:39.267Z,18.99
2017-08-05T10:56:39.261Z,19.06
2017-08-05T10:57:39.259Z,19.05
2017-08-05T10:58:39.556Z,19.13
2017-08-05T10:59:39.544Z,19.17
2017-08-05T11:00:39.221Z,19.24
2017-08-05T11:01:39.544Z,19.28
2017-08-05T11:02:39.206Z,19.38
2017-08-05T11:03:39.195Z,19.4
2017-08-05T11:04:39.186Z,19.4
2017-08-05T11:05:39.519Z,19.29
2017-08-05T11:06:39.179Z,19.23
2017-08-05T11:07:39.173Z,19.24
2017-08-05T11:08:39.479Z,19.14
2017-08-05T11:09:39.146Z,19.08
2017-08-05T11:10:39.468Z,19.05
2017-08-05T11:11:38.806Z,19.1
2017-08-05T11:12:39.461Z,19.05
2017-08-05T11:15:39.620Z,18.97
2017-08-05T11:16:39.608Z,19.02
2017-08-05T11:17:39.907Z,19.11
2017-08-05T11:18:39.584Z,19.05
2017-08-05T11:19:39.885Z,19.01
2017-08-05T11:20:39.885Z,19.05
2017-08-05T11:21:39.870Z,18.99
2017-08-05T11:22:39.236Z,18.95
2017-08-05T11:23:39.546Z,18.95
2017-08-05T11:24:39.844Z,18.84
2017-08-05T11:25:39.520Z,18.83
2017-08-05T11:26:39.515Z,18.82
2017-08-05T11:27:39.811Z,18.77
2017-08-05T11:28:40.219Z,18.8
2017-08-05T11:29:39.482Z,18.72
2017-08-05T11:30:39.473Z,18.67
2017-08-05T11:31:39.469Z,18.7
2017-08-05T11:32:39.458Z,18.67
2017-08-05T11:33:39.754Z,18.52
2017-08-05T11:34:39.741Z,18.57
2017-08-05T11:35:39.490Z,18.55
2017-08-05T11:36:39.414Z,18.58
2017-08-05T11:37:39.093Z,18.49
2017-08-05T11:38:39.705Z,18.62
2017-08-05T11:39:39.693Z,18.68
2017-08-05T11:40:39.685Z,18.7
2017-08-05T11:41:39.675Z,18.59
2017-08-05T11:42:39.662Z,18.74
2017-08-05T11:43:39.343Z,18.79
2017-08-05T11:44:39.650Z,18.74
2017-08-05T11:45:39.327Z,18.83
2017-08-05T11:46:39.390Z,18.61
2017-08-05T11:47:39.621Z,18.67
2017-08-05T11:48:38.982Z,18.65
2017-08-05T11:49:39.600Z,18.62
2017-08-05T11:50:39.592Z,18.64
2017-08-05T11:51:39.579Z,18.61
2017-08-05T11:52:39.585Z,18.57
2017-08-05T11:53:39.559Z,18.57
2017-08-05T11:54:39.556Z,18.57
2017-08-05T11:55:39.546Z,18.54
2017-08-05T11:56:38.904Z,18.57
2017-08-05T11:57:39.549Z,18.67
2017-08-05T11:58:38.890Z,18.72
2017-08-05T11:59:39.192Z,18.74
2017-08-05T12:00:39.179Z,18.79
2017-08-05T12:01:39.171Z,18.82
2017-08-05T12:02:39.478Z,18.91
2017-08-05T12:03:39.473Z,18.99
2017-08-05T12:04:39.146Z,18.87
2017-08-05T12:05:39.132Z,18.92
2017-08-05T12:06:39.140Z,19.01
2017-08-05T12:07:39.117Z,19.01
2017-08-05T12:08:38.790Z,19.02
2017-08-05T12:09:39.097Z,19.02
2017-08-05T12:10:39.402Z,18.98
2017-08-05T12:11:39.082Z,18.94
2017-08-05T12:12:39.070Z,18.97
2017-08-05T12:13:38.751Z,18.86
2017-08-05T12:14:39.052Z,18.9
2017-08-05T12:15:39.046Z,18.82
2017-08-05T12:16:39.351Z,18.8
2017-08-05T12:17:39.032Z,18.79
2017-08-05T12:18:39.333Z,18.77
2017-08-05T12:19:39.032Z,18.79
2017-08-05T12:20:39.330Z,18.67
2017-08-05T12:21:39.317Z,18.8
2017-08-05T12:22:39.297Z,18.73
2017-08-05T12:23:39.287Z,18.7
2017-08-05T12:24:39.271Z,18.65
2017-08-05T12:25:38.950Z,18.73
2017-08-05T12:26:39.255Z,18.67
2017-08-05T12:27:38.934Z,18.59
2017-08-05T12:28:39.230Z,18.54
2017-08-05T12:29:38.620Z,18.65
2017-08-05T12:30:38.910Z,18.61
2017-08-05T12:31:38.893Z,18.67
2017-08-05T12:32:38.887Z,18.7
2017-08-05T12:33:38.880Z,18.64
2017-08-05T12:34:39.177Z,18.68
2017-08-05T12:35:38.543Z,18.86
2017-08-05T12:36:38.852Z,18.79
2017-08-05T12:37:38.845Z,18.86
2017-08-05T12:38:38.831Z,19.02
2017-08-05T12:39:38.826Z,19.32
2017-08-05T12:40:39.130Z,19.72
2017-08-05T12:41:38.492Z,19.69
2017-08-05T12:42:38.791Z,19.72
2017-08-05T12:43:38.479Z,19.87
2017-08-05T12:44:39.090Z,19.95
2017-08-05T12:45:39.080Z,19.8
2017-08-05T12:46:39.076Z,19.75
2017-08-05T12:47:39.070Z,19.66
2017-08-05T12:48:38.493Z,20
2017-08-05T12:49:39.057Z,20.28
2017-08-05T12:50:39.048Z,20.69
2017-08-05T12:51:38.723Z,21.24
2017-08-05T12:52:39.031Z,21.81
2017-08-05T12:53:38.716Z,21.82
2017-08-05T12:54:38.716Z,22.01
2017-08-05T12:55:38.708Z,22.04
2017-08-05T12:56:39.006Z,21.9
2017-08-05T12:57:39.008Z,21.79
2017-08-05T12:58:38.993Z,21.59